Time,TemperatureF,DewpointF,PressureIn,WindDirection,WindDirectionDegrees,WindSpeedMPH,WindSpeedGustMPH,Humidity,HourlyPrecipIn,Conditions,Clouds,dailyrainin,SoftwareType,DateUTC
2013-03-06 00:00:00,29.3,21.4,30.28,WNW,296,3.4,9.0,72,0.00,RA,,0.00,WeatherDisplay:10.37,2013-03-06 06:00:00,
2013-03-06 00:05:00,29.3,21.4,30.28,NW,311,6.6,9.2,72,0.00,RA,,0.00,WeatherDisplay:10.37,2013-03-06 06:05:00,
2013-03-06 00:10:00,29.2,21.3,30.28,NW,307,7.9,13.8,72,0.00,,,0.00,WeatherDisplay:10.37,2013-03-06 06:10:00,
2013-03-06 00:15:00,29.0,21.4,30.28,NW,308,4.3,10.4,73,0.00,,,0.00,WeatherDisplay:10.37,2013-03-06 06:15:00,
2013-03-06 00:20:00,29.0,21.7,30.28,NW,308,5.9,11.0,74,0.00,,,0.00,WeatherDisplay:10.37,2013-03-06 06:20:00,
2013-03-06 00:25:00,28.9,21.7,30.28,WNW,301,8.8,9.2,74,0.00,,,0.00,WeatherDisplay:10.37,2013-03-06 06:25:00,
2013-03-06 00:30:00,28.8,21.6,30.28,NW,326,6.5,11.5,74,0.00,,,0.00,WeatherDisplay:10.37,2013-03-06 06:30:00,
2013-03-06 00:35:00,28.8,21.6,30.28,NW,311,5.4,13.8,74,0.00,,,0.00,WeatherDisplay:10.37,2013-03-06 06:35:00,
2013-03-06 00:40:00,28.6,21.4,30.28,NW,322,5.4,7.0,74,0.00,,,0.00,WeatherDisplay:10.37,2013-03-06 06:40:00,
2013-03-06 00:45:00,28.6,21.4,30.28,WNW,298,6.7,11.5,74,0.00,,,0.00,WeatherDisplay:10.37,2013-03-06 06:45:00,
2013-03-06 00:50:00,28.5,21.3,30.28,NW,307,7.1,9.2,74,0.00,,,0.00,WeatherDisplay:10.37,2013-03-06 06:50:00,
2013-03-06 00:55:00,28.4,21.2,30.29,WNW,300,7.1,11.5,74,0.00,,,0.00,WeatherDisplay:10.37,2013-03-06 06:55:00,
2013-03-06 01:00:00,28.5,21.3,30.29,WNW,300,6.4,9.2,74,0.00,,,0.00,WeatherDisplay:10.37,2013-03-06 07:00:00,
2013-03-06 01:05:00,28.5,21.3,30.28,WNW,285,5.1,8.1,74,0.00,CLR,,0.00,WeatherDisplay:10.37,2013-03-06 07:05:00,
2013-03-06 01:10:00,28.4,21.2,30.29,WNW,300,6.8,11.5,74,0.00,CLR,,0.00,WeatherDisplay:10.37,2013-03-06 07:10:00,
2013-03-06 01:15:00,28.3,21.1,30.29,WNW,298,9.0,11.5,74,0.00,CLR,,0.00,WeatherDisplay:10.37,2013-03-06 07:15:00,
2013-03-06 01:20:00,28.3,20.7,30.29,NW,310,11.8,13.8,73,0.00,CLR,,0.00,WeatherDisplay:10.37,2013-03-06 07:20:00,
2013-03-06 01:25:00,28.3,20.7,30.30,WNW,298,7.2,11.5,73,0.00,CLR,,0.00,WeatherDisplay:10.37,2013-03-06 07:25:00,
2013-03-06 01:30:00,28.3,20.7,30.29,WNW,300,8.0,8.1,73,0.00,CLR,,0.00,WeatherDisplay:10.37,2013-03-06 07:30:00,
2013-03-06 01:35:00,28.2,20.7,30.30,NW,314,6.3,9.2,73,0.00,CLR,,0.00,WeatherDisplay:10.37,2013-03-06 07:35:00,
2013-03-06 01:40:00,28.2,20.7,30.30,NW,308,6.5,12.7,73,0.00,CLR,,0.00,WeatherDisplay:10.37,2013-03-06 07:40:00,
2013-03-06 01:46:00,28.2,20.7,30.30,NW,305,7.0,11.5,73,0.00,CLR,,0.00,WeatherDisplay:10.37,2013-03-06 07:46:00,
2013-03-06 01:51:00,28.1,20.9,30.30,NW,312,7.5,9.2,74,0.00,CLR,,0.00,WeatherDisplay:10.37,2013-03-06 07:51:00,
2013-03-06 01:56:00,28.0,20.8,30.30,NW,307,5.7,5.8,74,0.00,CLR,,0.00,WeatherDisplay:10.37,2013-03-06 07:56:00,
2013-03-06 02:01:00,28.0,20.8,30.30,NW,307,6.3,10.4,74,0.00,CLR,,0.00,WeatherDisplay:10.37,2013-03-06 08:01:00,
2013-03-06 02:06:00,28.0,20.8,30.30,NNW,328,7.0,9.2,74,0.00,CLR,,0.00,WeatherDisplay:10.37,2013-03-06 08:06:00,
2013-03-06 02:11:00,27.9,20.7,30.30,WNW,296,6.6,9.2,74,0.00,CLR,,0.00,WeatherDisplay:10.37,2013-03-06 08:11:00,
2013-03-06 02:16:00,28.0,20.8,30.31,WNW,302,8.4,11.5,74,0.00,CLR,,0.00,WeatherDisplay:10.37,2013-03-06 08:16:00,
2013-03-06 02:21:00,27.9,20.7,30.30,WNW,283,7.5,10.4,74,0.00,CLR,,0.00,WeatherDisplay:10.37,2013-03-06 08:21:00,
2013-03-06 02:26:00,27.9,20.7,30.30,WNW,298,3.9,5.8,74,0.00,CLR,,0.00,WeatherDisplay:10.37,2013-03-06 08:26:00,
2013-03-06 02:31:00,27.9,20.7,30.30,WNW,290,6.1,11.5,74,0.00,CLR,,0.00,WeatherDisplay:10.37,2013-03-06 08:31:00,
2013-03-06 02:36:00,28.0,20.8,30.31,NW,304,6.7,9.2,74,0.00,CLR,,0.00,WeatherDisplay:10.37,2013-03-06 08:36:00,
2013-03-06 02:41:00,28.0,20.8,30.31,NW,305,6.3,10.4,74,0.00,CLR,,0.00,WeatherDisplay:10.37,2013-03-06 08:41:00,
2013-03-06 02:46:00,28.0,20.8,30.30,NW,326,4.0,4.6,74,0.00,CLR,,0.00,WeatherDisplay:10.37,2013-03-06 08:46:00,
2013-03-06 02:51:00,27.9,20.7,30.31,NW,306,5.4,6.9,74,0.00,CLR,,0.00,WeatherDisplay:10.37,2013-03-06 08:51:00,
2013-03-06 02:56:00,27.8,20.3,30.31,NW,306,9.5,15.0,73,0.00,CLR,,0.00,WeatherDisplay:10.37,2013-03-06 08:56:00,
2013-03-06 03:01:00,27.7,19.8,30.30,NNW,336,9.0,12.7,72,0.00,CLR,,0.00,WeatherDisplay:10.37,2013-03-06 09:01:00,
2013-03-06 03:06:00,27.5,19.0,30.31,WNW,294,7.8,11.5,70,0.00,,,0.00,WeatherDisplay:10.37,2013-03-06 09:06:00,
2013-03-06 03:11:00,27.3,19.1,30.31,WNW,298,4.3,6.9,71,0.00,,,0.00,WeatherDisplay:10.37,2013-03-06 09:11:00,
2013-03-06 03:16:00,27.0,18.8,30.31,NNW,343,8.0,12.0,71,0.00,,,0.00,WeatherDisplay:10.37,2013-03-06 09:16:00,
2013-03-06 03:21:00,26.9,18.7,30.31,WNW,295,4.4,7.0,71,0.00,,,0.00,WeatherDisplay:10.37,2013-03-06 09:21:00,
2013-03-06 03:26:00,26.8,18.7,30.32,NW,324,7.1,13.8,71,0.00,,,0.00,WeatherDisplay:10.37,2013-03-06 09:26:00,
2013-03-06 03:31:00,26.7,18.6,30.32,West,273,3.6,4.6,71,0.00,,,0.00,WeatherDisplay:10.37,2013-03-06 09:31:00,
2013-03-06 03:36:00,26.6,18.8,30.32,WNW,302,5.2,6.0,72,0.00,,,0.00,WeatherDisplay:10.37,2013-03-06 09:36:00,
2013-03-06 03:41:00,26.6,18.8,30.32,NNW,338,5.5,9.2,72,0.00,,,0.00,WeatherDisplay:10.37,2013-03-06 09:41:00,
2013-03-06 03:46:00,26.5,18.7,30.33,NW,304,6.2,6.9,72,0.00,,,0.00,WeatherDisplay:10.37,2013-03-06 09:46:00,
2013-03-06 03:51:00,26.5,19.0,30.33,NW,309,3.5,8.1,73,0.00,,,0.00,WeatherDisplay:10.37,2013-03-06 09:51:00,
2013-03-06 03:56:00,26.6,18.8,30.33,NW,317,5.1,9.2,72,0.00,,,0.00,WeatherDisplay:10.37,2013-03-06 09:56:00,
2013-03-06 04:01:00,26.6,18.8,30.33,WNW,298,5.0,5.8,72,0.00,,,0.00,WeatherDisplay:10.37,2013-03-06 10:01:00,
2013-03-06 04:06:00,26.5,18.7,30.33,NW,307,6.2,8.1,72,0.00,CLR,,0.00,WeatherDisplay:10.37,2013-03-06 10:06:00,
2013-03-06 04:11:00,26.4,18.9,30.33,WNW,294,4.9,9.2,73,0.00,CLR,,0.00,WeatherDisplay:10.37,2013-03-06 10:11:00,
2013-03-06 04:16:00,26.3,18.8,30.34,NNW,328,6.0,12.0,73,0.00,CLR,,0.00,WeatherDisplay:10.37,2013-03-06 10:16:00,
2013-03-06 04:21:00,26.5,18.7,30.33,NW,323,8.1,12.7,72,0.00,CLR,,0.00,WeatherDisplay:10.37,2013-03-06 10:21:00,
2013-03-06 04:26:00,26.6,18.8,30.34,NNE,18,9.1,12.7,72,0.00,CLR,,0.00,WeatherDisplay:10.37,2013-03-06 10:26:00,
2013-03-06 04:31:00,26.6,18.8,30.34,NW,316,4.3,7.0,72,0.00,CLR,,0.00,WeatherDisplay:10.37,2013-03-06 10:31:00,
2013-03-06 04:36:00,26.6,18.8,30.34,NW,316,4.7,6.9,72,0.00,CLR,,0.00,WeatherDisplay:10.37,2013-03-06 10:36:00,
2013-03-06 04:41:00,26.7,19.2,30.35,NW,309,4.3,10.4,73,0.00,CLR,,0.00,WeatherDisplay:10.37,2013-03-06 10:41:00,
2013-03-06 04:46:00,26.6,19.1,30.35,WNW,301,4.0,4.6,73,0.00,CLR,,0.00,WeatherDisplay:10.37,2013-03-06 10:46:00,
2013-03-06 04:51:00,26.6,19.1,30.35,NW,307,4.5,6.9,73,0.00,CLR,,0.00,WeatherDisplay:10.37,2013-03-06 10:51:00,
2013-03-06 04:56:00,26.5,19.3,30.35,WNW,298,2.1,4.0,74,0.00,CLR,,0.00,WeatherDisplay:10.37,2013-03-06 10:56:00,
2013-03-06 05:01:00,26.4,19.2,30.36,NW,312,3.9,8.0,74,0.00,CLR,,0.00,WeatherDisplay:10.37,2013-03-06 11:01:00,
2013-03-06 05:06:00,26.5,19.3,30.36,WNW,297,4.1,4.6,74,0.00,CLR,,0.00,WeatherDisplay:10.37,2013-03-06 11:06:00,
2013-03-06 05:11:00,26.4,19.2,30.36,WNW,301,2.9,3.5,74,0.00,CLR,,0.00,WeatherDisplay:10.37,2013-03-06 11:11:00,
2013-03-06 05:16:00,26.3,19.1,30.36,NW,307,5.1,8.1,74,0.00,CLR,,0.00,WeatherDisplay:10.37,2013-03-06 11:16:00,
2013-03-06 05:21:00,26.3,18.8,30.36,WNW,301,7.2,11.5,73,0.00,CLR,,0.00,WeatherDisplay:10.37,2013-03-06 11:21:00,
2013-03-06 05:26:00,26.2,18.7,30.36,WNW,297,4.5,6.9,73,0.00,CLR,,0.00,WeatherDisplay:10.37,2013-03-06 11:26:00,
2013-03-06 05:31:00,26.1,18.3,30.36,NW,325,3.6,6.0,72,0.00,CLR,,0.00,WeatherDisplay:10.37,2013-03-06 11:31:00,
2013-03-06 05:36:00,25.9,18.1,30.37,NW,314,1.3,3.5,72,0.00,CLR,,0.00,WeatherDisplay:10.37,2013-03-06 11:36:00,
2013-03-06 05:41:00,25.8,18.0,30.37,NW,305,5.5,5.8,72,0.00,CLR,,0.00,WeatherDisplay:10.37,2013-03-06 11:41:00,
2013-03-06 05:46:00,25.8,18.0,30.37,NW,317,6.4,8.1,72,0.00,CLR,,0.00,WeatherDisplay:10.37,2013-03-06 11:46:00,
2013-03-06 05:51:00,25.7,17.9,30.37,WNW,297,7.5,10.4,72,0.00,CLR,,0.00,WeatherDisplay:10.37,2013-03-06 11:51:00,
2013-03-06 05:56:00,25.6,17.8,30.38,NW,311,7.4,11.5,72,0.00,CLR,,0.00,WeatherDisplay:10.37,2013-03-06 11:56:00,
2013-03-06 06:01:00,25.4,17.9,30.38,WNW,287,7.4,8.1,73,0.00,CLR,,0.00,WeatherDisplay:10.37,2013-03-06 12:01:00,
2013-03-06 06:06:00,25.3,17.9,30.38,WNW,296,4.1,6.0,73,0.00,CLR,,0.00,WeatherDisplay:10.37,2013-03-06 12:06:00,
2013-03-06 06:11:00,25.3,17.9,30.38,NW,304,6.6,9.2,73,0.00,CLR,,0.00,WeatherDisplay:10.37,2013-03-06 12:11:00,
2013-03-06 06:16:00,25.3,17.9,30.38,NW,309,4.7,8.1,73,0.00,CLR,,0.00,WeatherDisplay:10.37,2013-03-06 12:16:00,
2013-03-06 06:21:00,25.3,17.9,30.38,WNW,298,5.4,8.1,73,0.00,CLR,,0.00,WeatherDisplay:10.37,2013-03-06 12:21:00,
2013-03-06 06:26:00,25.4,18.3,30.38,NW,316,5.3,6.9,74,0.00,CLR,,0.00,WeatherDisplay:10.37,2013-03-06 12:26:00,
2013-03-06 06:31:00,25.3,18.2,30.38,NW,315,6.2,10.4,74,0.00,CLR,,0.00,WeatherDisplay:10.37,2013-03-06 12:31:00,
2013-03-06 06:36:00,25.4,18.3,30.38,WNW,302,6.6,11.5,74,0.00,CLR,,0.00,WeatherDisplay:10.37,2013-03-06 12:36:00,
2013-03-06 06:41:00,25.4,18.3,30.38,North,352,4.5,6.9,74,0.00,CLR,,0.00,WeatherDisplay:10.37,2013-03-06 12:41:00,
2013-03-06 06:47:00,25.4,18.3,30.38,WNW,302,7.1,10.4,74,0.00,CLR,,0.00,WeatherDisplay:10.37,2013-03-06 12:47:00,
2013-03-06 06:52:00,25.4,18.3,30.39,NNW,334,3.8,6.9,74,0.00,CLR,,0.00,WeatherDisplay:10.37,2013-03-06 12:52:00,
2013-03-06 06:57:00,25.5,18.4,30.39,NW,311,2.7,3.5,74,0.00,CLR,,0.00,WeatherDisplay:10.37,2013-03-06 12:57:00,
2013-03-06 07:02:00,25.5,18.4,30.39,NW,316,5.1,8.1,74,0.00,CLR,,0.00,WeatherDisplay:10.37,2013-03-06 13:02:00,
2013-03-06 07:07:00,25.6,18.8,30.39,WNW,300,3.4,5.8,75,0.00,CLR,,0.00,WeatherDisplay:10.37,2013-03-06 13:07:00,
2013-03-06 07:12:00,25.7,18.6,30.39,WNW,302,5.9,10.4,74,0.00,CLR,,0.00,WeatherDisplay:10.37,2013-03-06 13:12:00,
2013-03-06 07:17:00,25.8,18.7,30.40,NW,304,4.7,10.4,74,0.00,CLR,,0.00,WeatherDisplay:10.37,2013-03-06 13:17:00,
2013-03-06 07:22:00,25.9,18.7,30.40,WNW,287,5.1,6.9,74,0.00,CLR,,0.00,WeatherDisplay:10.37,2013-03-06 13:22:00,
2013-03-06 07:27:00,25.9,18.4,30.40,NW,326,3.3,5.8,73,0.00,CLR,,0.00,WeatherDisplay:10.37,2013-03-06 13:27:00,
2013-03-06 07:32:00,26.1,18.9,30.40,NW,322,3.8,5.8,74,0.00,CLR,,0.00,WeatherDisplay:10.37,2013-03-06 13:32:00,
2013-03-06 07:37:00,26.2,18.7,30.40,NW,314,5.6,9.2,73,0.00,CLR,,0.00,WeatherDisplay:10.37,2013-03-06 13:37:00,
2013-03-06 07:42:00,26.3,18.8,30.40,NW,305,3.3,4.0,73,0.00,CLR,,0.00,WeatherDisplay:10.37,2013-03-06 13:42:00,
2013-03-06 07:47:00,26.4,18.9,30.40,North,360,5.0,12.0,73,0.00,CLR,,0.00,WeatherDisplay:10.37,2013-03-06 13:47:00,
2013-03-06 07:52:00,26.5,18.7,30.40,NNW,342,5.6,10.4,72,0.00,CLR,,0.00,WeatherDisplay:10.37,2013-03-06 13:52:00,
2013-03-06 07:57:00,26.6,19.1,30.40,NW,315,1.7,4.6,73,0.00,CLR,,0.00,WeatherDisplay:10.37,2013-03-06 13:57:00,
2013-03-06 08:02:00,26.9,19.1,30.40,WNW,289,3.3,4.6,72,0.00,CLR,,0.00,WeatherDisplay:10.37,2013-03-06 14:02:00,
2013-03-06 08:07:00,26.9,18.7,30.40,NW,307,6.2,11.5,71,0.00,CLR,,0.00,WeatherDisplay:10.37,2013-03-06 14:07:00,
2013-03-06 08:12:00,27.0,19.2,30.40,NW,316,4.2,5.8,72,0.00,CLR,,0.00,WeatherDisplay:10.37,2013-03-06 14:12:00,
2013-03-06 08:17:00,27.1,18.9,30.41,WNW,297,3.8,8.1,71,0.00,CLR,,0.00,WeatherDisplay:10.37,2013-03-06 14:17:00,
2013-03-06 08:22:00,27.3,18.8,30.41,NNE,16,4.2,11.5,70,0.00,CLR,,0.00,WeatherDisplay:10.37,2013-03-06 14:22:00,
2013-03-06 08:27:00,27.6,19.1,30.41,NW,323,5.1,8.1,70,0.00,CLR,,0.00,WeatherDisplay:10.37,2013-03-06 14:27:00,
2013-03-06 08:32:00,27.9,19.0,30.41,NE,51,5.2,11.5,69,0.00,CLR,,0.00,WeatherDisplay:10.37,2013-03-06 14:32:00,
2013-03-06 08:37:00,27.9,19.0,30.42,NW,318,5.1,6.9,69,0.00,CLR,,0.00,WeatherDisplay:10.37,2013-03-06 14:37:00,
2013-03-06 08:42:00,28.2,19.3,30.42,NNW,338,5.0,9.2,69,0.00,CLR,,0.00,WeatherDisplay:10.37,2013-03-06 14:42:00,
2013-03-06 08:47:00,28.8,19.9,30.41,NNE,22,3.8,5.0,69,0.00,CLR,,0.00,WeatherDisplay:10.37,2013-03-06 14:47:00,
2013-03-06 08:52:00,28.7,19.5,30.41,North,351,6.3,10.4,68,0.00,CLR,,0.00,WeatherDisplay:10.37,2013-03-06 14:52:00,
2013-03-06 08:57:00,29.2,20.3,30.42,NNW,334,3.2,5.0,69,0.00,CLR,,0.00,WeatherDisplay:10.37,2013-03-06 14:57:00,
2013-03-06 09:02:00,29.2,19.9,30.42,NW,325,2.8,6.0,68,0.00,CLR,,0.00,WeatherDisplay:10.37,2013-03-06 15:02:00,
2013-03-06 09:07:00,29.3,19.7,30.42,WNW,301,7.0,10.4,67,0.00,CLR,,0.00,WeatherDisplay:10.37,2013-03-06 15:07:00,
2013-03-06 09:12:00,29.0,19.8,30.42,NW,315,7.7,10.4,68,0.00,CLR,,0.00,WeatherDisplay:10.37,2013-03-06 15:12:00,
2013-03-06 09:17:00,29.3,20.0,30.42,NNW,343,3.4,4.0,68,0.00,CLR,,0.00,WeatherDisplay:10.37,2013-03-06 15:17:00,
2013-03-06 09:22:00,29.7,19.7,30.42,NW,320,4.5,6.9,66,0.00,CLR,,0.00,WeatherDisplay:10.37,2013-03-06 15:22:00,
2013-03-06 09:27:00,29.6,20.0,30.42,NNW,336,6.7,8.1,67,0.00,CLR,,0.00,WeatherDisplay:10.37,2013-03-06 15:27:00,
2013-03-06 09:32:00,29.8,20.2,30.41,NW,305,4.7,8.1,67,0.00,CLR,,0.00,WeatherDisplay:10.37,2013-03-06 15:32:00,
2013-03-06 09:37:00,30.1,19.7,30.42,North,5,0.2,5.8,65,0.00,CLR,,0.00,WeatherDisplay:10.37,2013-03-06 15:37:00,
2013-03-06 09:42:00,30.3,20.3,30.42,West,281,2.8,4.6,66,0.00,CLR,,0.00,WeatherDisplay:10.37,2013-03-06 15:42:00,
2013-03-06 09:47:00,30.7,20.3,30.42,NNE,16,3.9,9.2,65,0.00,CLR,,0.00,WeatherDisplay:10.37,2013-03-06 15:47:00,
2013-03-06 09:52:00,31.1,20.3,30.42,NW,325,4.9,8.1,64,0.00,CLR,,0.00,WeatherDisplay:10.37,2013-03-06 15:52:00,
2013-03-06 09:57:00,31.1,20.7,30.42,NE,45,2.6,3.5,65,0.00,CLR,,0.00,WeatherDisplay:10.37,2013-03-06 15:57:00,
2013-03-06 10:02:00,31.3,20.2,30.41,NNW,340,8.1,11.5,63,0.00,CLR,,0.00,WeatherDisplay:10.37,2013-03-06 16:02:00,
2013-03-06 10:07:00,31.8,21.0,30.41,WSW,239,0.3,0.0,64,0.00,CLR,,0.00,WeatherDisplay:10.37,2013-03-06 16:07:00,
2013-03-06 10:12:00,32.6,20.6,30.41,NNW,333,4.0,8.1,61,0.00,CLR,,0.00,WeatherDisplay:10.37,2013-03-06 16:12:00,
2013-03-06 10:17:00,32.1,19.8,30.41,NW,316,5.6,10.4,60,0.00,CLR,,0.00,WeatherDisplay:10.37,2013-03-06 16:17:00,
2013-03-06 10:22:00,32.6,19.8,30.41,WNW,297,4.6,9.2,59,0.00,CLR,,0.00,WeatherDisplay:10.37,2013-03-06 16:22:00,
2013-03-06 10:27:00,33.1,20.7,30.41,NE,53,1.8,6.9,60,0.00,CLR,,0.00,WeatherDisplay:10.37,2013-03-06 16:27:00,
2013-03-06 10:32:00,33.6,20.8,30.41,East,101,2.0,3.5,59,0.00,CLR,,0.00,WeatherDisplay:10.37,2013-03-06 16:32:00,
2013-03-06 10:37:00,34.0,20.8,30.41,WNW,302,4.2,7.0,58,0.00,CLR,,0.00,WeatherDisplay:10.37,2013-03-06 16:37:00,
2013-03-06 10:42:00,33.7,20.1,30.41,WNW,294,2.2,8.1,57,0.00,CLR,,0.00,WeatherDisplay:10.37,2013-03-06 16:42:00,
2013-03-06 10:48:00,33.4,19.8,30.41,ENE,60,2.5,3.5,57,0.00,CLR,,0.00,WeatherDisplay:10.37,2013-03-06 16:48:00,
2013-03-06 10:53:00,33.7,20.1,30.41,NW,309,4.4,4.6,57,0.00,CLR,,0.00,WeatherDisplay:10.37,2013-03-06 16:53:00,
2013-03-06 10:58:00,34.3,20.6,30.41,WNW,294,5.3,8.0,57,0.00,CLR,,0.00,WeatherDisplay:10.37,2013-03-06 16:58:00,
2013-03-06 11:03:00,34.2,20.5,30.41,NW,309,2.4,3.5,57,0.00,CLR,,0.00,WeatherDisplay:10.37,2013-03-06 17:03:00,
2013-03-06 11:08:00,34.4,20.3,30.41,WSW,257,3.4,5.8,56,0.00,CLR,,0.00,WeatherDisplay:10.37,2013-03-06 17:08:00,
2013-03-06 11:13:00,35.0,21.3,30.41,NE,36,1.5,3.5,57,0.00,CLR,,0.00,WeatherDisplay:10.37,2013-03-06 17:13:00,
2013-03-06 11:18:00,35.5,20.9,30.40,WNW,287,3.0,3.5,55,0.00,CLR,,0.00,WeatherDisplay:10.37,2013-03-06 17:18:00,
2013-03-06 11:23:00,35.3,21.2,30.40,WSW,256,3.8,4.6,56,0.00,CLR,,0.00,WeatherDisplay:10.37,2013-03-06 17:23:00,
2013-03-06 11:28:00,36.6,22.4,30.41,NE,46,1.7,3.5,56,0.00,CLR,,0.00,WeatherDisplay:10.37,2013-03-06 17:28:00,
2013-03-06 11:33:00,36.8,21.3,30.41,NNW,347,2.7,3.5,53,0.00,CLR,,0.00,WeatherDisplay:10.37,2013-03-06 17:33:00,
2013-03-06 11:38:00,36.5,21.0,30.40,NE,44,4.1,8.1,53,0.00,CLR,,0.00,WeatherDisplay:10.37,2013-03-06 17:38:00,
2013-03-06 11:43:00,36.1,21.9,30.41,West,269,1.2,3.5,56,0.00,CLR,,0.00,WeatherDisplay:10.37,2013-03-06 17:43:00,
2013-03-06 11:48:00,36.8,21.3,30.41,WSW,255,2.8,3.5,53,0.00,CLR,,0.00,WeatherDisplay:10.37,2013-03-06 17:48:00,
2013-03-06 11:53:00,37.4,22.7,30.40,WNW,298,4.2,8.1,55,0.00,CLR,,0.00,WeatherDisplay:10.37,2013-03-06 17:53:00,
2013-03-06 11:58:00,37.5,21.5,30.41,NW,321,5.4,8.1,52,0.00,CLR,,0.00,WeatherDisplay:10.37,2013-03-06 17:58:00,
2013-03-06 12:03:00,37.5,21.9,30.40,NNW,347,3.6,7.0,53,0.00,CLR,,0.00,WeatherDisplay:10.37,2013-03-06 18:03:00,
2013-03-06 12:08:00,37.3,21.3,30.40,ENE,58,2.2,5.8,52,0.00,CLR,,0.00,WeatherDisplay:10.37,2013-03-06 18:08:00,
2013-03-06 12:13:00,37.9,21.8,30.39,WNW,300,1.6,3.5,52,0.00,CLR,,0.00,WeatherDisplay:10.37,2013-03-06 18:13:00,
2013-03-06 12:18:00,38.3,22.2,30.39,SW,221,3.0,5.8,52,0.00,CLR,,0.00,WeatherDisplay:10.37,2013-03-06 18:18:00,
2013-03-06 12:23:00,39.1,22.9,30.39,NW,323,2.0,5.8,52,0.00,CLR,,0.00,WeatherDisplay:10.37,2013-03-06 18:23:00,
2013-03-06 12:28:00,39.7,22.1,30.39,NNE,28,3.5,5.8,49,0.00,CLR,,0.00,WeatherDisplay:10.37,2013-03-06 18:28:00,
2013-03-06 12:33:00,39.6,22.0,30.39,West,276,1.4,2.3,49,0.00,CLR,,0.00,WeatherDisplay:10.37,2013-03-06 18:33:00,
2013-03-06 12:38:00,40.0,22.4,30.38,NW,312,3.6,5.8,49,0.00,CLR,,0.00,WeatherDisplay:10.37,2013-03-06 18:38:00,
2013-03-06 12:43:00,39.7,21.1,30.38,NNE,32,2.8,5.0,47,0.00,CLR,,0.00,WeatherDisplay:10.37,2013-03-06 18:43:00,
2013-03-06 12:48:00,39.0,21.9,30.38,NE,35,5.4,8.1,50,0.00,CLR,,0.00,WeatherDisplay:10.37,2013-03-06 18:48:00,
2013-03-06 12:53:00,39.6,22.0,30.38,NNW,345,1.9,4.6,49,0.00,CLR,,0.00,WeatherDisplay:10.37,2013-03-06 18:53:00,
2013-03-06 12:58:00,39.6,21.5,30.38,WSW,257,2.1,3.5,48,0.00,CLR,,0.00,WeatherDisplay:10.37,2013-03-06 18:58:00,
2013-03-06 13:03:00,40.1,22.0,30.37,WNW,298,5.1,5.8,48,0.00,CLR,,0.00,WeatherDisplay:10.37,2013-03-06 19:03:00,
2013-03-06 13:08:00,40.3,22.1,30.37,WSW,249,3.9,6.9,48,0.00,CLR,,0.00,WeatherDisplay:10.37,2013-03-06 19:08:00,
2013-03-06 13:13:00,40.3,22.1,30.36,North,352,3.6,5.8,48,0.00,CLR,,0.00,WeatherDisplay:10.37,2013-03-06 19:13:00,
2013-03-06 13:18:00,40.7,22.5,30.36,NNE,33,2.1,5.0,48,0.00,CLR,,0.00,WeatherDisplay:10.37,2013-03-06 19:18:00,
2013-03-06 13:23:00,41.7,22.4,30.36,NNE,15,2.9,3.5,46,0.00,CLR,,0.00,WeatherDisplay:10.37,2013-03-06 19:23:00,
2013-03-06 13:28:00,41.6,22.3,30.36,NW,326,4.8,6.9,46,0.00,CLR,,0.00,WeatherDisplay:10.37,2013-03-06 19:28:00,
2013-03-06 13:33:00,41.3,22.1,30.36,NW,309,4.1,7.0,46,0.00,CLR,,0.00,WeatherDisplay:10.37,2013-03-06 19:33:00,
2013-03-06 13:38:00,41.5,22.7,30.36,WNW,285,2.1,6.0,47,0.00,CLR,,0.00,WeatherDisplay:10.37,2013-03-06 19:38:00,
2013-03-06 13:43:00,42.3,22.4,30.36,WNW,302,1.5,2.3,45,0.00,CLR,,0.00,WeatherDisplay:10.37,2013-03-06 19:43:00,
2013-03-06 13:48:00,41.9,23.6,30.35,NW,318,4.8,6.0,48,0.00,CLR,,0.00,WeatherDisplay:10.37,2013-03-06 19:48:00,
2013-03-06 13:53:00,42.1,22.8,30.35,WNW,293,3.4,3.5,46,0.00,CLR,,0.00,WeatherDisplay:10.37,2013-03-06 19:53:00,
2013-03-06 13:58:00,42.4,22.5,30.35,NW,305,3.7,6.9,45,0.00,CLR,,0.00,WeatherDisplay:10.37,2013-03-06 19:58:00,
2013-03-06 14:03:00,42.8,24.4,30.35,West,279,1.6,3.5,48,0.00,CLR,,0.00,WeatherDisplay:10.37,2013-03-06 20:03:00,
2013-03-06 14:08:00,42.7,22.3,30.35,WNW,300,6.0,8.1,44,0.00,CLR,,0.00,WeatherDisplay:10.37,2013-03-06 20:08:00,
2013-03-06 14:13:00,42.8,23.4,30.35,NW,324,4.2,8.1,46,0.00,CLR,,0.00,WeatherDisplay:10.37,2013-03-06 20:13:00,
2013-03-06 14:18:00,43.3,23.4,30.35,NW,321,3.7,7.0,45,0.00,CLR,,0.00,WeatherDisplay:10.37,2013-03-06 20:18:00,
2013-03-06 14:23:00,43.1,23.2,30.35,WNW,300,4.4,7.0,45,0.00,CLR,,0.00,WeatherDisplay:10.37,2013-03-06 20:23:00,
2013-03-06 14:28:00,43.5,23.5,30.35,West,273,3.6,3.6,45,0.00,CLR,,0.00,WeatherDisplay:10.37,2013-03-06 20:28:00,
2013-03-06 14:33:00,43.6,23.1,30.34,NW,309,1.5,2.3,44,0.00,CLR,,0.00,WeatherDisplay:10.37,2013-03-06 20:33:00,
2013-03-06 14:38:00,44.3,24.3,30.34,NW,320,3.8,9.2,45,0.00,CLR,,0.00,WeatherDisplay:10.37,2013-03-06 20:38:00,
2013-03-06 14:43:00,43.8,23.3,30.34,NNE,20,2.0,4.6,44,0.00,CLR,,0.00,WeatherDisplay:10.37,2013-03-06 20:43:00,
2013-03-06 14:48:00,44.2,23.1,30.34,NW,305,2.9,5.8,43,0.00,CLR,,0.00,WeatherDisplay:10.37,2013-03-06 20:48:00,
2013-03-06 14:53:00,44.4,23.8,30.33,West,263,1.3,3.5,44,0.00,CLR,,0.00,WeatherDisplay:10.37,2013-03-06 20:53:00,
2013-03-06 14:58:00,45.0,23.8,30.33,NNW,331,2.0,3.5,43,0.00,CLR,,0.00,WeatherDisplay:10.37,2013-03-06 20:58:00,
2013-03-06 15:03:00,45.0,24.4,30.33,West,271,2.8,4.0,44,0.00,CLR,,0.00,WeatherDisplay:10.37,2013-03-06 21:03:00,
2013-03-06 15:08:00,45.0,23.3,30.33,NW,319,5.3,6.9,42,0.00,CLR,,0.00,WeatherDisplay:10.37,2013-03-06 21:08:00,
2013-03-06 15:14:00,45.1,24.5,30.33,NW,312,3.7,6.0,44,0.00,CLR,,0.00,WeatherDisplay:10.37,2013-03-06 21:14:00,
2013-03-06 15:19:00,45.6,24.4,30.33,WNW,290,0.2,3.0,43,0.00,CLR,,0.00,WeatherDisplay:10.37,2013-03-06 21:19:00,
2013-03-06 15:24:00,45.2,24.0,30.33,WNW,288,3.8,4.6,43,0.00,CLR,,0.00,WeatherDisplay:10.37,2013-03-06 21:24:00,
2013-03-06 15:29:00,45.5,25.4,30.33,NW,326,0.1,1.1,45,0.00,CLR,,0.00,WeatherDisplay:10.37,2013-03-06 21:29:00,
2013-03-06 15:34:00,45.7,25.0,30.33,NNW,328,3.5,3.5,44,0.00,CLR,,0.00,WeatherDisplay:10.37,2013-03-06 21:34:00,
2013-03-06 15:39:00,45.1,23.3,30.32,WNW,300,3.3,4.6,42,0.00,CLR,,0.00,WeatherDisplay:10.37,2013-03-06 21:39:00,
2013-03-06 15:44:00,45.5,23.7,30.32,NE,56,1.9,3.5,42,0.00,CLR,,0.00,WeatherDisplay:10.37,2013-03-06 21:44:00,
2013-03-06 15:49:00,45.4,24.7,30.32,West,267,3.8,4.6,44,0.00,CLR,,0.00,WeatherDisplay:10.37,2013-03-06 21:49:00,
2013-03-06 15:54:00,45.6,24.4,30.32,WNW,290,2.4,3.5,43,0.00,CLR,,0.00,WeatherDisplay:10.37,2013-03-06 21:54:00,
2013-03-06 15:59:00,45.7,23.9,30.32,West,277,1.9,3.5,42,0.00,CLR,,0.00,WeatherDisplay:10.37,2013-03-06 21:59:00,
2013-03-06 16:04:00,45.7,24.5,30.32,WSW,250,2.2,3.5,43,0.00,CLR,,0.00,WeatherDisplay:10.37,2013-03-06 22:04:00,
2013-03-06 16:09:00,46.0,24.7,30.32,NW,304,4.6,5.8,43,0.00,CLR,,0.00,WeatherDisplay:10.37,2013-03-06 22:09:00,
2013-03-06 16:14:00,45.3,23.5,30.32,West,280,4.2,5.8,42,0.00,CLR,,0.00,WeatherDisplay:10.37,2013-03-06 22:14:00,
2013-03-06 16:19:00,45.0,23.8,30.32,East,79,0.5,2.3,43,0.00,CLR,,0.00,WeatherDisplay:10.37,2013-03-06 22:19:00,
2013-03-06 16:24:00,44.9,24.3,30.32,North,4,2.4,3.5,44,0.00,CLR,,0.00,WeatherDisplay:10.37,2013-03-06 22:24:00,
2013-03-06 16:29:00,44.8,24.2,30.32,NW,317,3.8,4.6,44,0.00,CLR,,0.00,WeatherDisplay:10.37,2013-03-06 22:29:00,
2013-03-06 16:34:00,44.7,24.1,30.32,NNW,345,0.1,1.1,44,0.00,CLR,,0.00,WeatherDisplay:10.37,2013-03-06 22:34:00,
2013-03-06 16:39:00,44.7,24.1,30.32,NNE,23,1.8,3.5,44,0.00,CLR,,0.00,WeatherDisplay:10.37,2013-03-06 22:39:00,
2013-03-06 16:44:00,44.4,24.4,30.32,WNW,295,1.8,3.5,45,0.00,CLR,,0.00,WeatherDisplay:10.37,2013-03-06 22:44:00,
2013-03-06 16:49:00,44.1,23.6,30.32,West,276,0.8,3.5,44,0.00,CLR,,0.00,WeatherDisplay:10.37,2013-03-06 22:49:00,
2013-03-06 16:54:00,44.1,24.1,30.32,WNW,297,2.5,3.5,45,0.00,CLR,,0.00,WeatherDisplay:10.37,2013-03-06 22:54:00,
2013-03-06 16:59:00,43.8,24.3,30.32,WNW,290,0.5,2.0,46,0.00,CLR,,0.00,WeatherDisplay:10.37,2013-03-06 22:59:00,
2013-03-06 17:04:00,43.6,24.7,30.32,NW,312,0.1,0.0,47,0.00,CLR,,0.00,WeatherDisplay:10.37,2013-03-06 23:04:00,
2013-03-06 17:09:00,43.3,24.4,30.32,NW,305,1.4,2.3,47,0.00,CLR,,0.00,WeatherDisplay:10.37,2013-03-06 23:09:00,
2013-03-06 17:14:00,43.0,24.1,30.32,WNW,302,0.5,2.3,47,0.00,CLR,,0.00,WeatherDisplay:10.37,2013-03-06 23:14:00,
2013-03-06 17:19:00,42.8,23.9,30.32,NW,312,0.9,3.5,47,0.00,CLR,,0.00,WeatherDisplay:10.37,2013-03-06 23:19:00,
2013-03-06 17:24:00,42.7,24.4,30.32,NW,308,0.1,0.0,48,0.00,CLR,,0.00,WeatherDisplay:10.37,2013-03-06 23:24:00,
2013-03-06 17:29:00,42.5,24.2,30.31,WNW,290,0.0,0.0,48,0.00,CLR,,0.00,WeatherDisplay:10.37,2013-03-06 23:29:00,
2013-03-06 17:34:00,42.4,25.1,30.31,East,83,0.0,0.0,50,0.00,CLR,,0.00,WeatherDisplay:10.37,2013-03-06 23:34:00,
2013-03-06 17:39:00,42.2,24.4,30.31,ENE,74,0.6,1.1,49,0.00,CLR,,0.00,WeatherDisplay:10.37,2013-03-06 23:39:00,
2013-03-06 17:44:00,41.9,24.1,30.31,NE,44,0.2,2.3,49,0.00,CLR,,0.00,WeatherDisplay:10.37,2013-03-06 23:44:00,
2013-03-06 17:49:00,41.7,23.9,30.31,NNE,12,0.3,2.3,49,0.00,CLR,,0.00,WeatherDisplay:10.37,2013-03-06 23:49:00,
2013-03-06 17:54:00,41.4,24.1,30.30,NNE,22,0.0,0.0,50,0.00,CLR,,0.00,WeatherDisplay:10.37,2013-03-06 23:54:00,
2013-03-06 17:59:00,41.1,23.9,30.31,NNE,22,0.0,0.0,50,0.00,CLR,,0.00,WeatherDisplay:10.37,2013-03-06 23:59:00,
2013-03-06 18:04:00,40.9,23.7,30.31,NNE,20,0.0,0.0,50,0.00,CLR,,0.00,WeatherDisplay:10.37,2013-03-07 00:04:00,
2013-03-06 18:09:00,40.7,24.0,30.31,NNE,16,0.0,0.0,51,0.00,CLR,,0.00,WeatherDisplay:10.37,2013-03-07 00:09:00,
2013-03-06 18:14:00,40.6,23.9,30.31,NNE,18,0.0,0.0,51,0.00,CLR,,0.00,WeatherDisplay:10.37,2013-03-07 00:14:00,
2013-03-06 18:19:00,40.5,23.8,30.30,NNE,18,0.1,0.0,51,0.00,CLR,,0.00,WeatherDisplay:10.37,2013-03-07 00:19:00,
2013-03-06 18:24:00,40.4,23.7,30.31,NNE,25,0.0,0.0,51,0.00,CLR,,0.00,WeatherDisplay:10.37,2013-03-07 00:24:00,
2013-03-06 18:29:00,40.3,23.6,30.31,NNE,19,0.4,1.1,51,0.00,CLR,,0.00,WeatherDisplay:10.37,2013-03-07 00:29:00,
2013-03-06 18:34:00,40.2,23.5,30.31,NNE,19,0.0,0.0,51,0.00,CLR,,0.00,WeatherDisplay:10.37,2013-03-07 00:34:00,
2013-03-06 18:39:00,40.0,23.8,30.31,NNE,15,0.0,1.1,52,0.00,CLR,,0.00,WeatherDisplay:10.37,2013-03-07 00:39:00,
2013-03-06 18:44:00,39.8,23.6,30.31,North,5,0.0,0.0,52,0.00,,,0.00,WeatherDisplay:10.37,2013-03-07 00:44:00,
2013-03-06 18:49:00,39.6,23.4,30.30,North,5,0.0,0.0,52,0.00,,,0.00,WeatherDisplay:10.37,2013-03-07 00:49:00,
2013-03-06 18:54:00,39.4,23.2,30.30,North,5,0.0,0.0,52,0.00,,,0.00,WeatherDisplay:10.37,2013-03-07 00:54:00,
2013-03-06 18:59:00,39.5,23.3,30.30,North,8,1.0,1.1,52,0.00,,,0.00,WeatherDisplay:10.37,2013-03-07 00:59:00,
2013-03-06 19:05:00,39.4,23.3,30.30,NNE,15,0.0,1.0,52,0.00,,,0.00,WeatherDisplay:10.37,2013-03-07 01:05:00,
2013-03-06 19:10:00,39.4,23.2,30.30,North,8,0.2,1.1,52,0.00,,,0.00,WeatherDisplay:10.37,2013-03-07 01:10:00,
2013-03-06 19:15:00,39.3,23.1,30.30,North,9,0.1,1.1,52,0.00,,,0.00,WeatherDisplay:10.37,2013-03-07 01:15:00,
2013-03-06 19:20:00,39.3,23.1,30.30,North,8,0.7,1.1,52,0.00,,,0.00,WeatherDisplay:10.37,2013-03-07 01:20:00,
2013-03-06 19:25:00,39.3,23.1,30.31,NNW,339,0.5,1.1,52,0.00,,,0.00,WeatherDisplay:10.37,2013-03-07 01:25:00,
2013-03-06 19:30:00,39.2,23.5,30.30,North,7,0.2,1.1,53,0.00,,,0.00,WeatherDisplay:10.37,2013-03-07 01:30:00,
2013-03-06 19:35:00,39.1,23.4,30.31,North,6,0.0,1.1,53,0.00,,,0.00,WeatherDisplay:10.37,2013-03-07 01:35:00,
2013-03-06 19:40:00,38.9,23.2,30.31,NNE,15,0.0,0.0,53,0.00,,,0.00,WeatherDisplay:10.37,2013-03-07 01:40:00,
2013-03-06 19:45:00,38.9,23.7,30.30,NNE,33,0.0,0.0,54,0.00,,,0.00,WeatherDisplay:10.37,2013-03-07 01:45:00,
2013-03-06 19:50:00,38.9,23.7,30.31,NNE,30,0.7,1.1,54,0.00,,,0.00,WeatherDisplay:10.37,2013-03-07 01:50:00,
2013-03-06 19:55:00,39.0,23.7,30.30,NE,49,0.0,0.0,54,0.00,,,0.00,WeatherDisplay:10.37,2013-03-07 01:55:00,
2013-03-06 20:00:00,38.9,23.7,30.31,NE,46,0.0,1.1,54,0.00,,,0.00,WeatherDisplay:10.37,2013-03-07 02:00:00,
2013-03-06 20:05:00,38.8,23.6,30.30,NE,46,0.0,1.1,54,0.00,,,0.00,WeatherDisplay:10.37,2013-03-07 02:05:00,
2013-03-06 20:10:00,38.7,23.5,30.30,NE,40,0.5,1.1,54,0.00,,,0.00,WeatherDisplay:10.37,2013-03-07 02:10:00,
2013-03-06 20:15:00,38.7,23.5,30.30,NE,50,1.3,2.3,54,0.00,,,0.00,WeatherDisplay:10.37,2013-03-07 02:15:00,
2013-03-06 20:20:00,38.5,23.3,30.30,NE,41,0.1,1.1,54,0.00,,,0.00,WeatherDisplay:10.37,2013-03-07 02:20:00,
2013-03-06 20:25:00,38.4,23.6,30.30,ENE,59,0.0,1.1,55,0.00,,,0.00,WeatherDisplay:10.37,2013-03-07 02:25:00,
2013-03-06 20:30:00,38.3,23.5,30.31,NNE,27,0.0,0.0,55,0.00,,,0.00,WeatherDisplay:10.37,2013-03-07 02:30:00,
2013-03-06 20:35:00,38.2,23.4,30.31,NNE,27,0.0,0.0,55,0.00,,,0.00,WeatherDisplay:10.37,2013-03-07 02:35:00,
2013-03-06 20:40:00,38.0,23.3,30.31,NNE,27,0.0,1.1,55,0.00,,,0.00,WeatherDisplay:10.37,2013-03-07 02:40:00,
2013-03-06 20:45:00,37.8,23.5,30.31,NNE,33,0.0,1.1,56,0.00,,,0.00,WeatherDisplay:10.37,2013-03-07 02:45:00,
2013-03-06 20:50:00,37.8,23.5,30.31,ENE,60,0.0,1.1,56,0.00,,,0.00,WeatherDisplay:10.37,2013-03-07 02:50:00,
2013-03-06 20:55:00,37.9,23.6,30.31,ENE,59,0.0,0.0,56,0.00,,,0.00,WeatherDisplay:10.37,2013-03-07 02:55:00,
2013-03-06 21:00:00,37.7,23.4,30.30,ENE,64,0.0,0.0,56,0.00,,,0.00,WeatherDisplay:10.37,2013-03-07 03:00:00,
2013-03-06 21:05:00,37.4,23.5,30.31,ENE,65,0.0,0.0,57,0.00,,,0.00,WeatherDisplay:10.37,2013-03-07 03:05:00,
2013-03-06 21:10:00,37.1,23.3,30.30,ENE,75,0.9,1.1,57,0.00,,,0.00,WeatherDisplay:10.37,2013-03-07 03:10:00,
2013-03-06 21:15:00,37.0,23.2,30.30,ENE,71,1.0,1.1,57,0.00,,,0.00,WeatherDisplay:10.37,2013-03-07 03:15:00,
2013-03-06 21:20:00,36.9,23.5,30.30,East,79,1.1,2.3,58,0.00,,,0.00,WeatherDisplay:10.37,2013-03-07 03:20:00,
2013-03-06 21:25:00,36.7,23.3,30.30,ENE,78,1.0,1.1,58,0.00,,,0.00,WeatherDisplay:10.37,2013-03-07 03:25:00,
2013-03-06 21:30:00,36.4,23.4,30.30,ENE,75,1.0,2.3,59,0.00,,,0.00,WeatherDisplay:10.37,2013-03-07 03:30:00,
2013-03-06 21:35:00,36.1,23.5,30.30,ENE,75,1.1,2.3,60,0.00,,,0.00,WeatherDisplay:10.37,2013-03-07 03:35:00,
2013-03-06 21:40:00,35.9,23.7,30.29,East,79,1.4,2.3,61,0.00,,,0.00,WeatherDisplay:10.37,2013-03-07 03:40:00,
2013-03-06 21:45:00,36.0,23.8,30.29,ENE,78,1.3,3.5,61,0.00,,,0.00,WeatherDisplay:10.37,2013-03-07 03:45:00,
2013-03-06 21:50:00,36.2,23.6,30.29,ENE,64,1.8,3.5,60,0.00,,,0.00,WeatherDisplay:10.37,2013-03-07 03:50:00,
2013-03-06 21:55:00,36.1,23.9,30.29,ENE,65,1.2,2.3,61,0.00,,,0.00,WeatherDisplay:10.37,2013-03-07 03:55:00,
2013-03-06 22:00:00,35.8,23.7,30.29,ENE,72,1.7,2.3,61,0.00,,,0.00,WeatherDisplay:10.37,2013-03-07 04:00:00,
2013-03-06 22:05:00,35.7,23.9,30.29,ENE,72,1.1,2.3,62,0.00,,,0.00,WeatherDisplay:10.37,2013-03-07 04:05:00,
2013-03-06 22:10:00,35.5,23.8,30.30,ENE,70,0.0,1.1,62,0.00,,,0.00,WeatherDisplay:10.37,2013-03-07 04:10:00,
2013-03-06 22:15:00,35.3,23.6,30.30,ENE,69,0.0,0.0,62,0.00,,,0.00,WeatherDisplay:10.37,2013-03-07 04:15:00,
2013-03-06 22:20:00,35.1,23.8,30.30,ENE,70,0.0,0.0,63,0.00,,,0.00,WeatherDisplay:10.37,2013-03-07 04:20:00,
2013-03-06 22:25:00,35.0,23.7,30.29,ENE,70,0.0,0.0,63,0.00,,,0.00,WeatherDisplay:10.37,2013-03-07 04:25:00,
2013-03-06 22:30:00,34.9,23.6,30.29,ENE,70,0.1,1.1,63,0.00,,,0.00,WeatherDisplay:10.37,2013-03-07 04:30:00,
2013-03-06 22:35:00,35.0,23.7,30.29,East,88,0.2,1.1,63,0.00,,,0.00,WeatherDisplay:10.37,2013-03-07 04:35:00,
2013-03-06 22:40:00,35.1,23.8,30.29,East,86,1.0,1.1,63,0.00,,,0.00,WeatherDisplay:10.37,2013-03-07 04:40:00,
2013-03-06 22:45:00,35.4,24.0,30.29,ENE,72,1.5,3.0,63,0.00,,,0.00,WeatherDisplay:10.37,2013-03-07 04:45:00,
2013-03-06 22:50:00,35.5,23.8,30.29,East,80,0.9,2.3,62,0.00,,,0.00,WeatherDisplay:10.37,2013-03-07 04:50:00,
2013-03-06 22:55:00,35.6,23.9,30.29,East,82,0.7,3.5,62,0.00,,,0.00,WeatherDisplay:10.37,2013-03-07 04:55:00,
2013-03-06 23:00:00,35.5,23.8,30.29,East,90,1.0,3.0,62,0.00,,,0.00,WeatherDisplay:10.37,2013-03-07 05:00:00,
2013-03-06 23:02:00,35.5,23.8,30.29,East,82,1.4,2.3,62,0.00,,,0.00,WeatherDisplay:10.37,2013-03-07 05:02:00,
2013-03-06 23:07:00,35.6,23.9,30.28,East,101,1.1,2.3,62,0.00,,,0.00,WeatherDisplay:10.37,2013-03-07 05:07:00,
2013-03-06 23:12:00,35.6,23.9,30.28,ESE,109,0.9,2.3,62,0.00,,,0.00,WeatherDisplay:10.37,2013-03-07 05:12:00,
2013-03-06 23:17:00,35.6,23.9,30.28,East,100,1.4,3.5,62,0.00,,,0.00,WeatherDisplay:10.37,2013-03-07 05:17:00,
2013-03-06 23:22:00,35.5,23.8,30.29,ENE,58,1.5,3.5,62,0.00,,,0.00,WeatherDisplay:10.37,2013-03-07 05:22:00,
2013-03-06 23:27:00,35.5,23.8,30.29,East,88,2.5,3.5,62,0.00,,,0.00,WeatherDisplay:10.37,2013-03-07 05:27:00,
2013-03-06 23:32:00,35.5,23.8,30.29,ESE,107,0.8,2.3,62,0.00,,,0.00,WeatherDisplay:10.37,2013-03-07 05:32:00,
2013-03-06 23:37:00,35.5,23.8,30.29,East,97,1.0,2.3,62,0.00,,,0.00,WeatherDisplay:10.37,2013-03-07 05:37:00,
2013-03-06 23:42:00,35.5,23.8,30.29,East,101,2.0,4.6,62,0.00,,,0.00,WeatherDisplay:10.37,2013-03-07 05:42:00,
2013-03-06 23:47:00,35.4,23.7,30.29,ENE,72,0.6,2.3,62,0.00,,,0.00,WeatherDisplay:10.37,2013-03-07 05:47:00,
2013-03-06 23:52:00,35.3,23.6,30.29,East,94,0.9,2.3,62,0.00,,,0.00,WeatherDisplay:10.37,2013-03-07 05:52:00,
2013-03-06 23:57:00,35.3,23.6,30.29,East,98,1.2,4.0,62,0.00,,,0.00,WeatherDisplay:10.37,2013-03-07 05:57:00,